Terminal Aerodrome Forecast
Issued by NWS

Home | Current Version | Previous Version | Text Only | Print | Product List | Glossary On
Versions: 1 2 3 4 5 6 7 8 9 10 11 12 13 14
000
FTUS45 KABQ 290542
TAFROW
TAF
KROW 290542Z 2906/3006 18008KT P6SM SCT250
     FM291000 VRB05KT P6SM SCT009
      TEMPO 2911/2914 4SM BR BKN009
     FM291600 03010KT P6SM SCT250
     FM292300 10008KT P6SM VCSH SCT080 BKN130=

USA.gov is the U.S. government's official web portal to all federal, state and local government web resources and services.